createdAt,value
2018-08-07T00:01:32.454Z,17.80
2018-08-07T00:04:30.111Z,17.80
2018-08-07T00:07:27.646Z,17.70
2018-08-07T00:10:30.449Z,17.70
2018-08-07T00:13:28.044Z,17.60
2018-08-07T00:16:26.230Z,17.60
2018-08-07T00:19:24.032Z,17.60
2018-08-07T00:22:21.887Z,17.50
2018-08-07T00:25:20.594Z,17.50
2018-08-07T00:28:18.406Z,17.40
2018-08-07T00:31:16.254Z,17.40
2018-08-07T00:34:14.043Z,17.40
2018-08-07T00:37:11.634Z,17.30
2018-08-07T00:40:09.449Z,17.30
2018-08-07T00:43:07.041Z,17.30
2018-08-07T00:46:05.011Z,17.20
2018-08-07T00:49:02.835Z,17.20
2018-08-07T00:52:00.895Z,17.20
2018-08-07T00:54:58.763Z,17.20
2018-08-07T00:57:57.792Z,17.20
2018-08-07T01:00:55.538Z,17.10
2018-08-07T01:03:53.522Z,17.10
2018-08-07T01:06:52.763Z,17.10
2018-08-07T01:09:50.698Z,17.10
2018-08-07T01:12:48.458Z,17.10
2018-08-07T01:15:46.250Z,17.00
2018-08-07T01:18:43.878Z,17.00
2018-08-07T01:21:41.624Z,17.00
2018-08-07T01:24:39.295Z,16.90
2018-08-07T01:27:36.826Z,16.90
2018-08-07T01:30:37.618Z,16.90
2018-08-07T01:33:35.397Z,16.90
2018-08-07T01:36:34.099Z,16.80
2018-08-07T01:39:31.673Z,16.80
2018-08-07T01:42:29.459Z,16.80
2018-08-07T01:45:27.382Z,16.80
2018-08-07T01:48:25.206Z,16.70
2018-08-07T01:51:22.861Z,16.80
2018-08-07T01:54:20.723Z,16.70
2018-08-07T01:57:18.477Z,16.70
2018-08-07T02:00:16.299Z,16.60
2018-08-07T02:03:14.178Z,16.60
2018-08-07T02:06:12.114Z,16.60
2018-08-07T02:09:12.045Z,16.60
2018-08-07T02:12:09.950Z,16.50
2018-08-07T02:15:07.730Z,16.50
2018-08-07T02:18:05.622Z,16.50
2018-08-07T02:21:03.383Z,16.50
2018-08-07T02:24:01.139Z,16.50
2018-08-07T02:26:58.811Z,16.50
2018-08-07T02:29:56.493Z,16.50
2018-08-07T02:32:53.932Z,16.40
2018-08-07T02:35:51.552Z,16.40
2018-08-07T02:38:49.287Z,16.50
2018-08-07T02:41:47.041Z,16.40
2018-08-07T02:44:44.840Z,16.40
2018-08-07T02:47:42.672Z,16.40
2018-08-07T02:53:30.159Z,16.40
2018-08-07T02:56:27.862Z,16.40
2018-08-07T02:59:25.432Z,16.40
2018-08-07T03:02:23.155Z,16.40
2018-08-07T03:05:51.842Z,16.40
2018-08-07T03:08:49.462Z,16.40
2018-08-07T03:11:47.144Z,16.40
2018-08-07T03:14:45.030Z,16.40
2018-08-07T03:17:42.868Z,16.40
2018-08-07T03:20:40.503Z,16.40
2018-08-07T03:23:38.356Z,16.40
2018-08-07T03:26:37.145Z,16.40
2018-08-07T03:29:34.943Z,16.50
2018-08-07T03:32:32.495Z,16.40
2018-08-07T03:35:29.777Z,16.50
2018-08-07T03:38:27.637Z,16.50
2018-08-07T03:41:25.586Z,16.50
2018-08-07T03:44:23.514Z,16.50
2018-08-07T03:50:11.536Z,16.60
2018-08-07T03:53:08.898Z,16.60
2018-08-07T03:56:06.275Z,16.60
2018-08-07T03:59:04.080Z,16.70
2018-08-07T04:02:01.752Z,16.70
2018-08-07T04:04:59.567Z,16.70
2018-08-07T04:07:57.091Z,16.80
2018-08-07T04:10:55.102Z,16.80
2018-08-07T04:13:52.882Z,16.80
2018-08-07T04:17:02.599Z,16.80
2018-08-07T04:20:00.338Z,16.80
2018-08-07T04:22:58.041Z,16.90
2018-08-07T04:25:55.969Z,16.90
2018-08-07T04:28:54.209Z,17.00
2018-08-07T04:31:51.314Z,17.10
2018-08-07T04:34:49.426Z,17.10
2018-08-07T04:37:47.439Z,17.20
2018-08-07T04:40:45.234Z,17.50
2018-08-07T04:43:42.794Z,17.70
2018-08-07T04:46:40.522Z,17.60
2018-08-07T04:49:38.227Z,17.60
2018-08-07T04:52:36.052Z,17.50
2018-08-07T04:55:33.524Z,17.60
2018-08-07T05:01:21.961Z,17.60
2018-08-07T05:04:20.047Z,17.70
2018-08-07T05:07:17.919Z,17.80
2018-08-07T05:10:15.448Z,17.90
2018-08-07T05:13:13.275Z,17.90
2018-08-07T05:19:01.492Z,18.00
2018-08-07T05:21:59.814Z,18.00
2018-08-07T05:24:57.860Z,18.10
2018-08-07T05:27:55.574Z,18.20
2018-08-07T05:30:53.398Z,18.30
2018-08-07T05:33:51.243Z,18.40
2018-08-07T05:36:50.908Z,18.50
2018-08-07T05:39:48.495Z,18.60
2018-08-07T05:42:46.189Z,18.60
2018-08-07T05:45:43.968Z,18.50
2018-08-07T05:48:41.750Z,18.50
2018-08-07T05:51:40.318Z,18.60
2018-08-07T05:54:38.630Z,18.80
2018-08-07T05:57:36.888Z,18.90
2018-08-07T06:00:38.589Z,19.00
2018-08-07T06:03:36.424Z,19.10
2018-08-07T06:06:34.118Z,19.20
2018-08-07T06:09:32.047Z,19.30
2018-08-07T06:12:29.632Z,19.50
2018-08-07T06:15:29.229Z,19.40
2018-08-07T06:18:27.832Z,19.40
2018-08-07T06:21:26.494Z,19.50
2018-08-07T06:24:24.287Z,19.80
2018-08-07T06:27:21.869Z,20.00
2018-08-07T06:30:23.504Z,20.00
2018-08-07T06:33:22.438Z,20.20
2018-08-07T06:36:20.262Z,20.40
2018-08-07T06:39:17.917Z,20.40
2018-08-07T06:42:15.642Z,20.60
2018-08-07T06:45:14.342Z,20.60
2018-08-07T06:51:02.086Z,24.30
2018-08-07T06:54:00.090Z,25.60
2018-08-07T06:56:57.582Z,26.70
2018-08-07T06:59:55.540Z,27.40
2018-08-07T07:02:53.459Z,28.40
2018-08-07T07:05:51.299Z,28.90
2018-08-07T07:08:49.310Z,28.70
2018-08-07T07:11:47.192Z,28.50
2018-08-07T07:14:44.391Z,28.60
2018-08-07T07:17:42.066Z,28.90
2018-08-07T07:20:39.816Z,28.80
2018-08-07T07:23:37.541Z,29.20
2018-08-07T07:26:35.423Z,29.60
2018-08-07T07:29:33.475Z,30.10
2018-08-07T07:32:31.429Z,30.00
2018-08-07T07:35:29.965Z,30.60
2018-08-07T07:38:27.223Z,31.20
2018-08-07T07:41:24.974Z,30.90
2018-08-07T07:44:22.614Z,30.60
2018-08-07T07:47:20.279Z,30.20
2018-08-07T07:50:20.406Z,30.80
2018-08-07T07:53:18.227Z,31.10
2018-08-07T07:56:16.023Z,30.20
2018-08-07T07:59:13.889Z,29.80
2018-08-07T08:02:11.801Z,29.50
2018-08-07T08:05:09.383Z,30.30
2018-08-07T08:08:11.246Z,29.80
2018-08-07T08:11:08.992Z,30.90
2018-08-07T08:14:06.688Z,30.30
2018-08-07T08:17:04.767Z,30.50
2018-08-07T08:20:02.428Z,30.90
2018-08-07T08:23:01.159Z,31.30
2018-08-07T08:25:59.730Z,31.20
2018-08-07T08:28:58.228Z,31.10
2018-08-07T08:31:57.205Z,31.40
2018-08-07T08:37:44.657Z,31.30
2018-08-07T08:40:43.733Z,32.00
2018-08-07T08:43:41.709Z,31.60
2018-08-07T08:46:39.621Z,31.20
2018-08-07T08:49:37.479Z,30.80
2018-08-07T08:52:35.313Z,31.00
2018-08-07T08:55:33.035Z,31.00
2018-08-07T08:58:30.807Z,31.60
2018-08-07T09:01:29.662Z,31.20
2018-08-07T09:04:27.726Z,31.00
2018-08-07T09:07:25.680Z,31.50
2018-08-07T09:10:26.639Z,31.90
2018-08-07T09:13:24.396Z,32.50
2018-08-07T09:16:22.359Z,32.80
2018-08-07T09:19:20.201Z,32.60
2018-08-07T09:22:18.085Z,32.20
2018-08-07T09:25:15.926Z,32.60
2018-08-07T09:28:15.452Z,32.30
2018-08-07T09:31:14.157Z,33.00
2018-08-07T09:34:11.775Z,33.00
2018-08-07T09:37:10.723Z,32.70
2018-08-07T09:40:08.608Z,32.50
2018-08-07T09:43:06.267Z,32.80
2018-08-07T09:46:04.174Z,32.80
2018-08-07T09:49:03.338Z,32.50
2018-08-07T09:52:01.262Z,33.10
2018-08-07T09:54:59.166Z,33.00
2018-08-07T09:57:56.984Z,32.50
2018-08-07T10:01:00.711Z,32.10
2018-08-07T10:03:58.654Z,32.70
2018-08-07T10:06:56.480Z,31.80
2018-08-07T10:09:54.428Z,30.90
2018-08-07T10:12:53.447Z,31.10
2018-08-07T10:15:51.231Z,31.70
2018-08-07T10:18:48.909Z,31.80
2018-08-07T10:21:46.634Z,32.60
2018-08-07T10:24:44.500Z,32.50
2018-08-07T10:27:42.375Z,32.90
2018-08-07T10:30:44.306Z,33.30
2018-08-07T10:33:41.980Z,32.70
2018-08-07T10:36:39.883Z,33.00
2018-08-07T10:39:37.681Z,33.10
2018-08-07T10:42:35.290Z,32.30
2018-08-07T10:48:24.854Z,32.10
2018-08-07T10:51:22.854Z,32.30
2018-08-07T10:54:21.133Z,31.90
2018-08-07T10:57:18.421Z,31.40
2018-08-07T11:00:17.307Z,31.90
2018-08-07T11:03:15.145Z,32.20
2018-08-07T11:06:12.939Z,32.10
2018-08-07T11:09:11.882Z,31.70
2018-08-07T11:12:10.813Z,31.10
2018-08-07T11:15:08.330Z,31.00
2018-08-07T11:18:06.330Z,31.50
2018-08-07T11:21:04.209Z,31.70
2018-08-07T11:24:02.072Z,31.70
2018-08-07T11:26:59.926Z,32.20
2018-08-07T11:29:59.824Z,32.10
2018-08-07T11:32:58.574Z,32.40
2018-08-07T11:35:56.432Z,32.40
2018-08-07T11:38:54.255Z,31.80
2018-08-07T11:41:52.003Z,31.80
2018-08-07T11:44:49.735Z,31.80
2018-08-07T11:47:48.583Z,31.90
2018-08-07T11:50:46.477Z,31.70
2018-08-07T11:53:45.368Z,31.80
2018-08-07T11:59:55.074Z,31.80
2018-08-07T12:02:52.930Z,32.10
2018-08-07T12:08:40.707Z,32.20
2018-08-07T12:11:38.420Z,31.90
2018-08-07T12:14:36.380Z,31.90
2018-08-07T12:17:34.316Z,31.00
2018-08-07T12:20:32.431Z,30.90
2018-08-07T12:23:30.056Z,31.60
2018-08-07T12:26:27.817Z,31.70
2018-08-07T12:29:25.743Z,31.70
2018-08-07T12:32:23.622Z,32.10
2018-08-07T12:35:21.642Z,31.90
2018-08-07T12:38:19.405Z,31.90
2018-08-07T12:41:17.194Z,32.10
2018-08-07T12:44:16.160Z,31.90
2018-08-07T12:47:13.981Z,32.00
2018-08-07T12:50:12.070Z,31.80
2018-08-07T12:53:09.906Z,31.50
2018-08-07T12:56:07.520Z,31.20
2018-08-07T12:59:05.486Z,31.10
2018-08-07T13:02:03.361Z,31.40
2018-08-07T13:05:02.003Z,31.60
2018-08-07T13:07:59.815Z,30.90
2018-08-07T13:10:58.575Z,31.00
2018-08-07T13:13:56.414Z,30.50
2018-08-07T13:19:43.879Z,31.00
2018-08-07T13:22:42.698Z,29.90
2018-08-07T13:25:41.296Z,30.40
2018-08-07T13:28:39.300Z,30.60
2018-08-07T13:31:37.071Z,30.50
2018-08-07T13:34:34.982Z,30.80
2018-08-07T13:37:32.861Z,30.70
2018-08-07T13:43:25.470Z,31.80
2018-08-07T13:46:23.353Z,32.00
2018-08-07T13:49:21.056Z,32.20
2018-08-07T13:52:18.787Z,32.00
2018-08-07T13:55:17.725Z,30.90
2018-08-07T13:58:15.861Z,31.00
2018-08-07T14:01:13.346Z,31.00
2018-08-07T14:04:10.906Z,30.40
2018-08-07T14:07:08.688Z,30.60
2018-08-07T14:10:06.642Z,30.40
2018-08-07T14:13:04.310Z,29.60
2018-08-07T14:16:01.913Z,29.30
2018-08-07T14:18:59.647Z,29.30
2018-08-07T14:21:57.256Z,29.00
2018-08-07T14:24:55.255Z,29.00
2018-08-07T14:27:54.559Z,29.20
2018-08-07T14:30:51.942Z,29.00
2018-08-07T14:33:49.770Z,29.20
2018-08-07T14:36:47.715Z,29.10
2018-08-07T14:39:45.283Z,28.40
2018-08-07T14:42:44.038Z,28.10
2018-08-07T14:45:43.832Z,27.80
2018-08-07T14:48:41.738Z,28.40
2018-08-07T14:51:39.573Z,29.00
2018-08-07T14:54:37.496Z,29.10
2018-08-07T14:57:35.342Z,29.40
2018-08-07T15:03:25.980Z,29.70
2018-08-07T15:06:23.912Z,29.70
2018-08-07T15:09:22.771Z,29.70
2018-08-07T15:12:21.839Z,29.90
2018-08-07T15:15:20.429Z,29.80
2018-08-07T15:18:18.612Z,28.90
2018-08-07T15:21:16.388Z,28.50
2018-08-07T15:24:14.181Z,29.00
2018-08-07T15:27:11.962Z,28.80
2018-08-07T15:30:09.868Z,29.00
2018-08-07T15:33:07.674Z,28.60
2018-08-07T15:36:05.375Z,28.00
2018-08-07T15:39:03.486Z,27.60
2018-08-07T15:42:01.889Z,27.10
2018-08-07T15:44:59.300Z,26.80
2018-08-07T15:47:57.210Z,26.60
2018-08-07T15:50:55.164Z,26.70
2018-08-07T15:53:53.642Z,26.80
2018-08-07T15:56:51.787Z,26.90
2018-08-07T15:59:49.347Z,27.10
2018-08-07T16:05:37.926Z,27.50
2018-08-07T16:08:35.580Z,27.70
2018-08-07T16:11:33.515Z,27.30
2018-08-07T16:14:31.010Z,27.10
2018-08-07T16:17:28.707Z,27.30
2018-08-07T16:20:28.368Z,27.50
2018-08-07T16:23:26.172Z,27.30
2018-08-07T16:26:24.000Z,27.50
2018-08-07T16:29:21.590Z,27.40
2018-08-07T16:32:19.432Z,27.50
2018-08-07T16:35:17.351Z,27.50
2018-08-07T16:38:15.027Z,27.30
2018-08-07T16:44:02.674Z,27.10
2018-08-07T16:47:00.529Z,27.10
2018-08-07T16:49:59.508Z,27.00
2018-08-07T16:52:59.123Z,27.10
2018-08-07T16:55:56.935Z,26.90
2018-08-07T16:58:55.087Z,26.40
2018-08-07T17:01:52.523Z,26.10
2018-08-07T17:07:40.437Z,25.80
2018-08-07T17:10:42.568Z,25.40
2018-08-07T17:13:40.513Z,25.10
2018-08-07T17:16:38.286Z,25.00
2018-08-07T17:19:39.231Z,24.90
2018-08-07T17:22:37.153Z,24.60
2018-08-07T17:25:34.847Z,24.50
2018-08-07T17:28:32.714Z,24.50
2018-08-07T17:31:30.241Z,24.50
2018-08-07T17:34:28.262Z,24.40
2018-08-07T17:37:26.068Z,24.30
2018-08-07T17:40:24.942Z,24.10
2018-08-07T17:43:22.652Z,24.00
2018-08-07T17:46:21.074Z,23.90
2018-08-07T17:49:19.202Z,23.80
2018-08-07T17:52:18.239Z,23.60
2018-08-07T17:55:15.994Z,23.60
2018-08-07T17:58:15.226Z,23.50
2018-08-07T18:01:12.851Z,23.50
2018-08-07T18:04:10.730Z,23.40
2018-08-07T18:07:08.567Z,23.40
2018-08-07T18:10:06.490Z,23.40
2018-08-07T18:13:04.114Z,23.40
2018-08-07T18:16:01.792Z,23.20
2018-08-07T18:18:59.722Z,23.10
2018-08-07T18:21:57.483Z,23.00
2018-08-07T18:24:56.518Z,22.90
2018-08-07T18:27:54.321Z,23.00
2018-08-07T18:30:53.149Z,23.00
2018-08-07T18:33:50.766Z,22.90
2018-08-07T18:36:48.522Z,22.90
2018-08-07T18:42:36.390Z,22.90
2018-08-07T18:45:35.051Z,22.80
2018-08-07T18:48:32.708Z,22.80
2018-08-07T18:51:30.576Z,22.80
2018-08-07T18:58:05.439Z,22.80
2018-08-07T19:01:02.944Z,22.80
2018-08-07T19:04:00.576Z,22.70
2018-08-07T19:06:59.193Z,22.60
2018-08-07T19:09:56.696Z,22.70
2018-08-07T19:12:55.437Z,22.70
2018-08-07T19:15:53.027Z,22.50
2018-08-07T19:18:51.656Z,22.40
2018-08-07T19:21:49.150Z,22.40
2018-08-07T19:24:46.944Z,22.30
2018-08-07T19:27:44.528Z,22.20
2018-08-07T19:30:42.084Z,22.10
2018-08-07T19:33:39.694Z,22.00
2018-08-07T19:36:37.207Z,22.00
2018-08-07T19:39:34.784Z,22.00
2018-08-07T19:42:33.513Z,22.00
2018-08-07T19:45:31.096Z,21.80
2018-08-07T19:48:28.867Z,21.90
2018-08-07T19:51:26.646Z,21.80
2018-08-07T19:54:25.495Z,21.60
2018-08-07T19:57:23.150Z,21.60
2018-08-07T20:00:23.050Z,21.60
2018-08-07T20:03:20.394Z,21.50
2018-08-07T20:06:17.886Z,21.50
2018-08-07T20:09:16.344Z,21.50
2018-08-07T20:12:14.965Z,21.40
2018-08-07T20:15:12.656Z,21.40
2018-08-07T20:18:10.352Z,21.40
2018-08-07T20:21:08.049Z,21.30
2018-08-07T20:24:05.591Z,21.30
2018-08-07T20:27:03.225Z,21.20
2018-08-07T20:30:00.933Z,21.20
2018-08-07T20:32:59.625Z,21.10
2018-08-07T20:35:57.247Z,21.10
2018-08-07T20:38:54.730Z,21.00
2018-08-07T20:41:52.302Z,21.00
2018-08-07T20:44:50.486Z,21.00
2018-08-07T20:47:47.623Z,21.00
2018-08-07T20:50:46.404Z,21.00
2018-08-07T20:53:44.640Z,20.90
2018-08-07T20:56:42.546Z,20.90
2018-08-07T20:59:40.416Z,20.90
2018-08-07T21:02:37.950Z,20.80
2018-08-07T21:05:35.430Z,20.80
2018-08-07T21:08:33.221Z,20.70
2018-08-07T21:11:31.013Z,20.70
2018-08-07T21:14:28.762Z,20.60
2018-08-07T21:17:26.552Z,20.60
2018-08-07T21:20:26.107Z,20.70
2018-08-07T21:23:23.583Z,20.70
2018-08-07T21:26:21.266Z,20.70
2018-08-07T21:29:18.798Z,20.70
2018-08-07T21:32:16.502Z,20.70
2018-08-07T21:35:15.246Z,20.60
2018-08-07T21:38:12.813Z,20.60
2018-08-07T21:41:10.574Z,20.60
2018-08-07T21:44:08.253Z,20.60
2018-08-07T21:47:05.896Z,20.50
2018-08-07T21:50:03.546Z,20.50
2018-08-07T21:53:01.196Z,20.40
2018-08-07T21:55:58.839Z,20.50
2018-08-07T21:58:56.470Z,20.50
2018-08-07T22:01:54.079Z,20.50
2018-08-07T22:04:51.592Z,20.40
2018-08-07T22:07:49.118Z,20.40
2018-08-07T22:10:46.688Z,20.50
2018-08-07T22:13:44.330Z,20.40
2018-08-07T22:16:41.971Z,20.40
2018-08-07T22:19:39.577Z,20.40
2018-08-07T22:22:37.274Z,20.40
2018-08-07T22:25:34.762Z,20.40
2018-08-07T22:28:32.559Z,20.40
2018-08-07T22:31:30.274Z,20.30
2018-08-07T22:34:28.026Z,20.30
2018-08-07T22:37:25.588Z,20.30
2018-08-07T22:40:24.305Z,20.30
2018-08-07T22:43:21.972Z,20.30
2018-08-07T22:46:19.600Z,20.30
2018-08-07T22:49:17.314Z,20.40
2018-08-07T22:52:14.860Z,20.40
2018-08-07T22:55:12.676Z,20.30
2018-08-07T22:58:10.448Z,20.40
2018-08-07T23:01:08.111Z,20.40
2018-08-07T23:04:06.973Z,20.30
2018-08-07T23:07:04.560Z,20.30
2018-08-07T23:10:02.192Z,20.30
2018-08-07T23:12:59.799Z,20.20
2018-08-07T23:15:57.412Z,20.20
2018-08-07T23:18:55.164Z,20.20
2018-08-07T23:21:52.752Z,20.20
2018-08-07T23:24:50.386Z,20.20
2018-08-07T23:27:48.251Z,20.20
2018-08-07T23:30:45.947Z,20.20
2018-08-07T23:33:43.620Z,20.20
2018-08-07T23:36:41.423Z,20.20
2018-08-07T23:39:39.322Z,20.20
2018-08-07T23:42:37.022Z,20.10
2018-08-07T23:45:34.778Z,20.10
2018-08-07T23:48:32.372Z,20.10
2018-08-07T23:51:29.998Z,20.10
2018-08-07T23:54:27.465Z,20.10
2018-08-07T23:57:25.037Z,20.20
